sensor_id;sensor_type;location;lat;lon;timestamp;pressure;altitude;pressure_sealevel;temperature;humidity
55456;BME280;63021;52.836;6.376;2023-02-17T00:00:22;101832.06;;;9.56;85.92
55456;BME280;63021;52.836;6.376;2023-02-17T00:02:47;101819.75;;;9.54;85.43
55456;BME280;63021;52.836;6.376;2023-02-17T00:05:13;101825.41;;;9.50;85.59
55456;BME280;63021;52.836;6.376;2023-02-17T00:07:38;101825.91;;;9.55;85.97
55456;BME280;63021;52.836;6.376;2023-02-17T00:10:04;101816.97;;;9.56;85.89
55456;BME280;63021;52.836;6.376;2023-02-17T00:12:30;101805.09;;;9.49;85.80
55456;BME280;63021;52.836;6.376;2023-02-17T00:14:56;101821.44;;;9.56;85.40
55456;BME280;63021;52.836;6.376;2023-02-17T00:17:21;101810.69;;;9.57;85.60
55456;BME280;63021;52.836;6.376;2023-02-17T00:19:47;101815.13;;;9.57;85.96
55456;BME280;63021;52.836;6.376;2023-02-17T00:22:12;101807.28;;;9.55;85.74
55456;BME280;63021;52.836;6.376;2023-02-17T00:24:39;101806.22;;;9.58;85.60
55456;BME280;63021;52.836;6.376;2023-02-17T00:27:09;101812.47;;;9.57;85.65
55456;BME280;63021;52.836;6.376;2023-02-17T00:29:34;101800.06;;;9.57;85.69
55456;BME280;63021;52.836;6.376;2023-02-17T00:31:59;101795.56;;;9.58;85.68
55456;BME280;63021;52.836;6.376;2023-02-17T00:34:26;101802.84;;;9.56;85.40
55456;BME280;63021;52.836;6.376;2023-02-17T00:36:52;101787.72;;;9.56;85.83
55456;BME280;63021;52.836;6.376;2023-02-17T00:39:17;101777.31;;;9.53;85.72
55456;BME280;63021;52.836;6.376;2023-02-17T00:41:43;101787.84;;;9.54;85.67
55456;BME280;63021;52.836;6.376;2023-02-17T00:44:15;101791.34;;;9.55;85.87
55456;BME280;63021;52.836;6.376;2023-02-17T00:46:41;101784.69;;;9.49;86.12
55456;BME280;63021;52.836;6.376;2023-02-17T00:49:07;101784.34;;;9.54;86.25
55456;BME280;63021;52.836;6.376;2023-02-17T00:51:33;101786.03;;;9.55;86.15
55456;BME280;63021;52.836;6.376;2023-02-17T00:53:59;101780.69;;;9.55;86.12
55456;BME280;63021;52.836;6.376;2023-02-17T00:56:24;101765.13;;;9.50;85.93
55456;BME280;63021;52.836;6.376;2023-02-17T00:58:49;101768.28;;;9.56;85.60
55456;BME280;63021;52.836;6.376;2023-02-17T01:01:15;101780.81;;;9.53;85.85
55456;BME280;63021;52.836;6.376;2023-02-17T01:03:40;101765.63;;;9.56;85.97
55456;BME280;63021;52.836;6.376;2023-02-17T01:06:09;101765.63;;;9.56;85.89
55456;BME280;63021;52.836;6.376;2023-02-17T01:08:34;101763.91;;;9.54;85.92
55456;BME280;63021;52.836;6.376;2023-02-17T01:11:00;101760.53;;;9.52;85.99
55456;BME280;63021;52.836;6.376;2023-02-17T01:13:25;101769.94;;;9.57;85.69
55456;BME280;63021;52.836;6.376;2023-02-17T01:15:52;101763.91;;;9.54;85.78
55456;BME280;63021;52.836;6.376;2023-02-17T01:18:19;101768.16;;;9.57;86.28
55456;BME280;63021;52.836;6.376;2023-02-17T01:20:45;101755.09;;;9.54;86.12
55456;BME280;63021;52.836;6.376;2023-02-17T01:23:11;101785.19;;;9.54;86.00
55456;BME280;63021;52.836;6.376;2023-02-17T01:25:38;101777.09;;;9.56;85.91
55456;BME280;63021;52.836;6.376;2023-02-17T01:28:04;101782.75;;;9.51;85.85
55456;BME280;63021;52.836;6.376;2023-02-17T01:30:30;101774.56;;;9.54;85.96
55456;BME280;63021;52.836;6.376;2023-02-17T01:32:56;101769.22;;;9.54;85.72
55456;BME280;63021;52.836;6.376;2023-02-17T01:35:21;101765.84;;;9.52;85.99
55456;BME280;63021;52.836;6.376;2023-02-17T01:37:46;101767.41;;;9.55;85.87
55456;BME280;63021;52.836;6.376;2023-02-17T01:40:13;101763.91;;;9.54;85.76
55456;BME280;63021;52.836;6.376;2023-02-17T01:42:39;101772.59;;;9.57;85.98
55456;BME280;63021;52.836;6.376;2023-02-17T01:47:53;101776.25;;;9.56;85.55
55456;BME280;63021;52.836;6.376;2023-02-17T01:50:24;101744.34;;;9.56;85.87
55456;BME280;63021;52.836;6.376;2023-02-17T01:52:54;101748.69;;;9.57;86.08
55456;BME280;63021;52.836;6.376;2023-02-17T01:55:21;101741.56;;;9.57;85.79
55456;BME280;63021;52.836;6.376;2023-02-17T01:57:48;101748.81;;;9.55;85.54
55456;BME280;63021;52.836;6.376;2023-02-17T02:00:16;101736.72;;;9.51;86.03
55456;BME280;63021;52.836;6.376;2023-02-17T02:02:45;101740.00;;;9.54;85.85
55456;BME280;63021;52.836;6.376;2023-02-17T02:05:13;101720.88;;;9.49;86.18
55456;BME280;63021;52.836;6.376;2023-02-17T02:07:40;101727.41;;;9.57;86.00
55456;BME280;63021;52.836;6.376;2023-02-17T02:10:07;101718.00;;;9.52;86.12
55456;BME280;63021;52.836;6.376;2023-02-17T02:12:35;101726.59;;;9.56;85.63
55456;BME280;63021;52.836;6.376;2023-02-17T02:15:05;101717.16;;;9.52;85.47
55456;BME280;63021;52.836;6.376;2023-02-17T02:23:20;101733.72;;;9.56;85.74
55456;BME280;63021;52.836;6.376;2023-02-17T02:34:03;101713.78;;;9.50;85.87
55456;BME280;63021;52.836;6.376;2023-02-17T02:36:35;101716.56;;;9.48;85.69
55456;BME280;63021;52.836;6.376;2023-02-17T02:39:29;101708.34;;;9.51;85.77
55456;BME280;63021;52.836;6.376;2023-02-17T02:42:07;101702.28;;;9.49;86.16
55456;BME280;63021;52.836;6.376;2023-02-17T02:44:34;101692.50;;;9.50;86.18
55456;BME280;63021;52.836;6.376;2023-02-17T02:47:01;101691.44;;;9.52;85.94
55456;BME280;63021;52.836;6.376;2023-02-17T02:49:29;101685.25;;;9.52;86.07
55456;BME280;63021;52.836;6.376;2023-02-17T02:54:40;101680.69;;;9.54;86.36
55456;BME280;63021;52.836;6.376;2023-02-17T03:02:18;101669.94;;;9.56;86.20
55456;BME280;63021;52.836;6.376;2023-02-17T03:04:50;101673.66;;;9.53;86.26
55456;BME280;63021;52.836;6.376;2023-02-17T03:10:21;101653.97;;;9.56;85.74
55456;BME280;63021;52.836;6.376;2023-02-17T03:12:46;101663.75;;;9.55;85.93
55456;BME280;63021;52.836;6.376;2023-02-17T03:15:20;101649.50;;;9.56;86.00
55456;BME280;63021;52.836;6.376;2023-02-17T03:17:47;101650.44;;;9.55;85.83
55456;BME280;63021;52.836;6.376;2023-02-17T03:20:13;101638.75;;;9.58;85.64
55456;BME280;63021;52.836;6.376;2023-02-17T03:22:42;101634.38;;;9.57;86.13
55456;BME280;63021;52.836;6.376;2023-02-17T03:25:09;101640.69;;;9.56;85.46
55456;BME280;63021;52.836;6.376;2023-02-17T03:27:34;101652.03;;;9.58;85.72
55456;BME280;63021;52.836;6.376;2023-02-17T03:30:00;101632.72;;;9.56;85.70
55456;BME280;63021;52.836;6.376;2023-02-17T03:32:25;101631.72;;;9.57;85.82
55456;BME280;63021;52.836;6.376;2023-02-17T03:34:51;101621.09;;;9.57;85.50
55456;BME280;63021;52.836;6.376;2023-02-17T03:37:16;101606.13;;;9.56;85.80
55456;BME280;63021;52.836;6.376;2023-02-17T03:39:42;101603.81;;;9.51;85.90
55456;BME280;63021;52.836;6.376;2023-02-17T03:42:08;101608.91;;;9.54;85.70
55456;BME280;63021;52.836;6.376;2023-02-17T03:44:33;101607.09;;;9.54;85.44
55456;BME280;63021;52.836;6.376;2023-02-17T03:46:58;101602.84;;;9.52;85.53
55456;BME280;63021;52.836;6.376;2023-02-17T03:49:24;101612.66;;;9.51;85.30
55456;BME280;63021;52.836;6.376;2023-02-17T03:51:49;101608.16;;;9.52;85.15
55456;BME280;63021;52.836;6.376;2023-02-17T03:54:15;101613.03;;;9.47;85.14
55456;BME280;63021;52.836;6.376;2023-02-17T03:56:40;101610.25;;;9.48;85.44
55456;BME280;63021;52.836;6.376;2023-02-17T03:59:06;101607.91;;;9.44;85.32
55456;BME280;63021;52.836;6.376;2023-02-17T04:01:32;101602.72;;;9.42;85.03
55456;BME280;63021;52.836;6.376;2023-02-17T04:03:57;101622.31;;;9.41;85.17
55456;BME280;63021;52.836;6.376;2023-02-17T04:06:23;101610.94;;;9.39;85.30
55456;BME280;63021;52.836;6.376;2023-02-17T04:08:48;101615.44;;;9.39;85.30
55456;BME280;63021;52.836;6.376;2023-02-17T04:11:14;101598.75;;;9.36;84.81
55456;BME280;63021;52.836;6.376;2023-02-17T04:13:39;101630.88;;;9.33;84.88
55456;BME280;63021;52.836;6.376;2023-02-17T04:16:06;101640.78;;;9.31;84.96
55456;BME280;63021;52.836;6.376;2023-02-17T04:18:33;101623.16;;;9.30;85.09
55456;BME280;63021;52.836;6.376;2023-02-17T04:20:59;101592.69;;;9.23;84.98
55456;BME280;63021;52.836;6.376;2023-02-17T04:23:25;101630.84;;;9.22;84.97
55456;BME280;63021;52.836;6.376;2023-02-17T04:25:50;101605.16;;;9.23;85.06
55456;BME280;63021;52.836;6.376;2023-02-17T04:28:16;101615.78;;;9.23;84.99
55456;BME280;63021;52.836;6.376;2023-02-17T04:30:44;101616.63;;;9.23;84.58
55456;BME280;63021;52.836;6.376;2023-02-17T04:33:11;101629.19;;;9.21;84.80
55456;BME280;63021;52.836;6.376;2023-02-17T04:35:36;101600.91;;;9.20;84.60
55456;BME280;63021;52.836;6.376;2023-02-17T04:38:02;101586.19;;;9.16;84.97
55456;BME280;63021;52.836;6.376;2023-02-17T04:40:27;101590.91;;;9.12;84.79
55456;BME280;63021;52.836;6.376;2023-02-17T04:42:53;101579.28;;;9.13;84.61
55456;BME280;63021;52.836;6.376;2023-02-17T04:45:18;101587.38;;;9.12;84.52
55456;BME280;63021;52.836;6.376;2023-02-17T04:47:44;101582.44;;;9.07;84.70
55456;BME280;63021;52.836;6.376;2023-02-17T04:50:10;101598.50;;;9.06;84.62
55456;BME280;63021;52.836;6.376;2023-02-17T04:52:35;101567.22;;;9.09;84.74
55456;BME280;63021;52.836;6.376;2023-02-17T04:55:01;101551.50;;;9.06;84.55
55456;BME280;63021;52.836;6.376;2023-02-17T04:57:27;101563.22;;;9.04;84.42
55456;BME280;63021;52.836;6.376;2023-02-17T04:59:52;101569.28;;;9.06;84.61
55456;BME280;63021;52.836;6.376;2023-02-17T05:02:18;101565.78;;;9.05;84.47
55456;BME280;63021;52.836;6.376;2023-02-17T05:04:43;101570.34;;;9.03;84.58
55456;BME280;63021;52.836;6.376;2023-02-17T05:07:09;101573.84;;;9.04;84.41
55456;BME280;63021;52.836;6.376;2023-02-17T05:09:34;101568.53;;;9.04;84.69
55456;BME280;63021;52.836;6.376;2023-02-17T05:12:00;101563.56;;;8.99;84.66
55456;BME280;63021;52.836;6.376;2023-02-17T05:14:27;101563.81;;;8.96;84.95
55456;BME280;63021;52.836;6.376;2023-02-17T05:16:52;101569.88;;;8.98;84.91
55456;BME280;63021;52.836;6.376;2023-02-17T05:19:18;101567.56;;;8.93;84.69
55456;BME280;63021;52.836;6.376;2023-02-17T05:21:43;101563.94;;;8.94;84.86
55456;BME280;63021;52.836;6.376;2023-02-17T05:24:08;101563.09;;;8.94;85.04
55456;BME280;63021;52.836;6.376;2023-02-17T05:26:34;101580.00;;;8.93;85.09
55456;BME280;63021;52.836;6.376;2023-02-17T05:28:59;101575.63;;;8.92;85.40
55456;BME280;63021;52.836;6.376;2023-02-17T05:31:25;101589.91;;;8.91;85.52
55456;BME280;63021;52.836;6.376;2023-02-17T05:33:52;101577.69;;;8.88;85.18
55456;BME280;63021;52.836;6.376;2023-02-17T05:36:18;101560.56;;;8.81;85.02
55456;BME280;63021;52.836;6.376;2023-02-17T05:38:43;101567.69;;;8.92;85.24
55456;BME280;63021;52.836;6.376;2023-02-17T05:41:13;101548.13;;;8.93;85.40
55456;BME280;63021;52.836;6.376;2023-02-17T05:43:39;101570.56;;;8.89;85.69
55456;BME280;63021;52.836;6.376;2023-02-17T05:46:05;101551.88;;;8.90;85.86
55456;BME280;63021;52.836;6.376;2023-02-17T05:48:31;101540.28;;;8.91;85.84
55456;BME280;63021;52.836;6.376;2023-02-17T05:50:56;101532.44;;;8.90;85.49
55456;BME280;63021;52.836;6.376;2023-02-17T05:53:22;101535.09;;;8.90;85.46
55456;BME280;63021;52.836;6.376;2023-02-17T05:55:47;101554.28;;;8.93;85.50
55456;BME280;63021;52.836;6.376;2023-02-17T05:58:13;101535.81;;;8.92;85.71
55456;BME280;63021;52.836;6.376;2023-02-17T06:00:38;101535.69;;;8.93;85.70
55456;BME280;63021;52.836;6.376;2023-02-17T06:03:03;101545.97;;;8.87;85.66
55456;BME280;63021;52.836;6.376;2023-02-17T06:05:29;101535.81;;;8.92;85.96
55456;BME280;63021;52.836;6.376;2023-02-17T06:07:54;101536.78;;;8.91;85.73
55456;BME280;63021;52.836;6.376;2023-02-17T06:10:20;101548.97;;;8.93;85.96
55456;BME280;63021;52.836;6.376;2023-02-17T06:12:45;101542.56;;;8.96;86.30
55456;BME280;63021;52.836;6.376;2023-02-17T06:15:11;101535.56;;;8.95;86.27
55456;BME280;63021;52.836;6.376;2023-02-17T06:17:36;101545.97;;;8.98;86.05
55456;BME280;63021;52.836;6.376;2023-02-17T06:20:02;101547.28;;;8.92;86.01
55456;BME280;63021;52.836;6.376;2023-02-17T06:22:28;101528.47;;;8.95;86.00
55456;BME280;63021;52.836;6.376;2023-02-17T06:24:53;101544.28;;;8.97;86.38
55456;BME280;63021;52.836;6.376;2023-02-17T06:27:19;101535.22;;;8.99;86.64
55456;BME280;63021;52.836;6.376;2023-02-17T06:29:44;101550.19;;;9.00;86.30
55456;BME280;63021;52.836;6.376;2023-02-17T06:32:09;101534.13;;;9.02;87.01
55456;BME280;63021;52.836;6.376;2023-02-17T06:34:35;101527.25;;;8.99;86.22
55456;BME280;63021;52.836;6.376;2023-02-17T06:37:00;101522.41;;;9.05;86.88
55456;BME280;63021;52.836;6.376;2023-02-17T06:39:26;101531.13;;;9.07;86.74
55456;BME280;63021;52.836;6.376;2023-02-17T06:41:51;101510.00;;;9.05;86.62
55456;BME280;63021;52.836;6.376;2023-02-17T06:44:16;101513.75;;;9.02;86.85
55456;BME280;63021;52.836;6.376;2023-02-17T06:46:42;101508.78;;;9.09;86.58
55456;BME280;63021;52.836;6.376;2023-02-17T06:49:10;101509.50;;;9.11;86.82
55456;BME280;63021;52.836;6.376;2023-02-17T06:51:36;101500.09;;;9.07;86.69
55456;BME280;63021;52.836;6.376;2023-02-17T06:54:01;101530.63;;;9.13;86.27
55456;BME280;63021;52.836;6.376;2023-02-17T06:56:26;101513.63;;;9.15;86.30
55456;BME280;63021;52.836;6.376;2023-02-17T06:58:52;101518.06;;;9.15;86.85
55456;BME280;63021;52.836;6.376;2023-02-17T07:01:20;101511.69;;;9.17;87.11
55456;BME280;63021;52.836;6.376;2023-02-17T07:03:46;101531.22;;;9.16;87.02
55456;BME280;63021;52.836;6.376;2023-02-17T07:06:12;101507.09;;;9.19;86.69
55456;BME280;63021;52.836;6.376;2023-02-17T07:08:38;101531.00;;;9.19;86.88
55456;BME280;63021;52.836;6.376;2023-02-17T07:11:08;101508.53;;;9.24;86.94
55456;BME280;63021;52.836;6.376;2023-02-17T07:13:34;101522.66;;;9.24;86.71
55456;BME280;63021;52.836;6.376;2023-02-17T07:16:00;101496.22;;;9.23;86.92
55456;BME280;63021;52.836;6.376;2023-02-17T07:18:25;101514.44;;;9.27;87.16
55456;BME280;63021;52.836;6.376;2023-02-17T07:20:51;101508.44;;;9.25;87.19
55456;BME280;63021;52.836;6.376;2023-02-17T07:23:16;101509.00;;;9.29;86.77
55456;BME280;63021;52.836;6.376;2023-02-17T07:25:42;101504.31;;;9.32;86.65
55456;BME280;63021;52.836;6.376;2023-02-17T07:28:08;101496.22;;;9.34;86.96
55456;BME280;63021;52.836;6.376;2023-02-17T07:30:40;101490.66;;;9.37;86.85
55456;BME280;63021;52.836;6.376;2023-02-17T07:33:06;101489.56;;;9.40;87.04
55456;BME280;63021;52.836;6.376;2023-02-17T07:35:32;101486.91;;;9.40;86.81
55456;BME280;63021;52.836;6.376;2023-02-17T07:37:59;101477.00;;;9.42;86.94
55456;BME280;63021;52.836;6.376;2023-02-17T07:40:25;101470.59;;;9.44;86.94
55456;BME280;63021;52.836;6.376;2023-02-17T07:42:51;101480.34;;;9.44;87.20
55456;BME280;63021;52.836;6.376;2023-02-17T07:45:17;101467.44;;;9.50;86.97
55456;BME280;63021;52.836;6.376;2023-02-17T07:47:42;101495.69;;;9.51;87.03
55456;BME280;63021;52.836;6.376;2023-02-17T07:50:08;101506.47;;;9.50;87.07
55456;BME280;63021;52.836;6.376;2023-02-17T07:52:34;101516.00;;;9.52;87.40
55456;BME280;63021;52.836;6.376;2023-02-17T07:55:00;101513.34;;;9.52;87.01
55456;BME280;63021;52.836;6.376;2023-02-17T07:57:25;101510.44;;;9.56;87.12
55456;BME280;63021;52.836;6.376;2023-02-17T07:59:51;101506.91;;;9.55;87.15
55456;BME280;63021;52.836;6.376;2023-02-17T08:02:16;101496.91;;;9.59;87.26
55456;BME280;63021;52.836;6.376;2023-02-17T08:04:42;101521.53;;;9.61;87.37
55456;BME280;63021;52.836;6.376;2023-02-17T08:07:08;101507.97;;;9.64;87.53
55456;BME280;63021;52.836;6.376;2023-02-17T08:09:34;101518.63;;;9.64;87.21
55456;BME280;63021;52.836;6.376;2023-02-17T08:12:19;101508.59;;;9.67;87.17
55456;BME280;63021;52.836;6.376;2023-02-17T08:15:08;101535.75;;;9.71;87.14
55456;BME280;63021;52.836;6.376;2023-02-17T08:17:34;101531.31;;;9.71;87.53
55456;BME280;63021;52.836;6.376;2023-02-17T08:19:59;101506.03;;;9.77;86.94
55456;BME280;63021;52.836;6.376;2023-02-17T08:22:25;101499.72;;;9.78;87.36
55456;BME280;63021;52.836;6.376;2023-02-17T08:24:51;101504.94;;;9.80;87.39
55456;BME280;63021;52.836;6.376;2023-02-17T08:27:17;101500.34;;;9.82;87.42
55456;BME280;63021;52.836;6.376;2023-02-17T08:29:43;101477.50;;;9.79;87.04
55456;BME280;63021;52.836;6.376;2023-02-17T08:32:09;101478.66;;;9.86;87.42
55456;BME280;63021;52.836;6.376;2023-02-17T08:34:34;101482.91;;;9.89;87.18
55456;BME280;63021;52.836;6.376;2023-02-17T08:37:01;101491.44;;;9.93;86.99
55456;BME280;63021;52.836;6.376;2023-02-17T08:39:28;101477.19;;;9.94;87.43
55456;BME280;63021;52.836;6.376;2023-02-17T08:41:54;101487.34;;;10.00;87.16
55456;BME280;63021;52.836;6.376;2023-02-17T08:44:20;101495.41;;;9.98;87.23
55456;BME280;63021;52.836;6.376;2023-02-17T08:46:47;101489.63;;;10.04;86.86
55456;BME280;63021;52.836;6.376;2023-02-17T08:49:14;101500.81;;;10.08;87.07
55456;BME280;63021;52.836;6.376;2023-02-17T08:51:41;101497.34;;;10.08;86.74
55456;BME280;63021;52.836;6.376;2023-02-17T08:54:07;101501.31;;;10.13;86.80
55456;BME280;63021;52.836;6.376;2023-02-17T08:56:36;101496.69;;;10.15;86.79
55456;BME280;63021;52.836;6.376;2023-02-17T08:59:02;101490.28;;;10.18;86.18
55456;BME280;63021;52.836;6.376;2023-02-17T09:01:28;101481.06;;;10.22;86.50
55456;BME280;63021;52.836;6.376;2023-02-17T09:03:58;101479.50;;;10.19;86.46
55456;BME280;63021;52.836;6.376;2023-02-17T09:09:04;101472.69;;;10.27;86.03
55456;BME280;63021;52.836;6.376;2023-02-17T09:11:29;101454.91;;;10.27;86.03
55456;BME280;63021;52.836;6.376;2023-02-17T09:13:55;101445.09;;;10.28;85.78
55456;BME280;63021;52.836;6.376;2023-02-17T09:16:20;101444.84;;;10.31;85.84
55456;BME280;63021;52.836;6.376;2023-02-17T09:18:48;101450.88;;;10.33;85.64
55456;BME280;63021;52.836;6.376;2023-02-17T09:21:14;101472.66;;;10.38;85.58
55456;BME280;63021;52.836;6.376;2023-02-17T09:23:40;101454.38;;;10.33;85.94
55456;BME280;63021;52.836;6.376;2023-02-17T09:26:07;101463.44;;;10.42;85.49
55456;BME280;63021;52.836;6.376;2023-02-17T09:28:33;101454.09;;;10.48;85.39
55456;BME280;63021;52.836;6.376;2023-02-17T09:31:10;101461.94;;;10.49;85.13
55456;BME280;63021;52.836;6.376;2023-02-17T09:33:36;101441.34;;;10.51;85.15
55456;BME280;63021;52.836;6.376;2023-02-17T09:36:03;101474.97;;;10.52;85.14
55456;BME280;63021;52.836;6.376;2023-02-17T09:38:28;101470.63;;;10.51;84.73
55456;BME280;63021;52.836;6.376;2023-02-17T09:43:46;101453.41;;;10.55;84.68
55456;BME280;63021;52.836;6.376;2023-02-17T09:46:43;101471.09;;;10.56;84.51
55456;BME280;63021;52.836;6.376;2023-02-17T09:49:21;101485.09;;;10.58;84.63
55456;BME280;63021;52.836;6.376;2023-02-17T09:52:04;101477.38;;;10.55;84.03
55456;BME280;63021;52.836;6.376;2023-02-17T09:54:41;101470.13;;;10.57;84.42
55456;BME280;63021;52.836;6.376;2023-02-17T09:57:12;101455.94;;;10.57;84.15
55456;BME280;63021;52.836;6.376;2023-02-17T09:59:46;101469.13;;;10.58;84.38
55456;BME280;63021;52.836;6.376;2023-02-17T10:02:30;101451.34;;;10.59;84.05
55456;BME280;63021;52.836;6.376;2023-02-17T10:05:04;101458.59;;;10.57;84.34
55456;BME280;63021;52.836;6.376;2023-02-17T10:07:39;101472.91;;;10.56;84.03
55456;BME280;63021;52.836;6.376;2023-02-17T10:10:51;101478.38;;;10.54;83.86
55456;BME280;63021;52.836;6.376;2023-02-17T10:13:20;101501.34;;;10.55;84.11
55456;BME280;63021;52.836;6.376;2023-02-17T10:15:51;101500.50;;;10.55;83.87
55456;BME280;63021;52.836;6.376;2023-02-17T10:18:27;101503.03;;;10.56;83.78
55456;BME280;63021;52.836;6.376;2023-02-17T10:21:01;101501.06;;;10.58;83.96
55456;BME280;63021;52.836;6.376;2023-02-17T10:23:29;101496.63;;;10.59;83.75
55456;BME280;63021;52.836;6.376;2023-02-17T10:31:27;101494.78;;;10.60;83.48
55456;BME280;63021;52.836;6.376;2023-02-17T10:34:00;101525.38;;;10.65;83.62
55456;BME280;63021;52.836;6.376;2023-02-17T10:36:48;101500.69;;;10.63;83.21
55456;BME280;63021;52.836;6.376;2023-02-17T10:42:16;101522.31;;;10.70;82.91
55456;BME280;63021;52.836;6.376;2023-02-17T10:44:43;101535.75;;;10.68;82.63
55456;BME280;63021;52.836;6.376;2023-02-17T10:47:09;101515.19;;;10.70;82.88
55456;BME280;63021;52.836;6.376;2023-02-17T10:49:39;101539.00;;;10.72;83.03
55456;BME280;63021;52.836;6.376;2023-02-17T10:52:19;101543.47;;;10.71;82.99
55456;BME280;63021;52.836;6.376;2023-02-17T10:54:56;101520.25;;;10.73;82.36
55456;BME280;63021;52.836;6.376;2023-02-17T10:57:27;101554.00;;;10.73;82.58
55456;BME280;63021;52.836;6.376;2023-02-17T10:59:56;101555.97;;;10.71;82.52
55456;BME280;63021;52.836;6.376;2023-02-17T11:02:35;101546.13;;;10.71;82.50
55456;BME280;63021;52.836;6.376;2023-02-17T11:05:04;101544.72;;;10.67;82.32
55456;BME280;63021;52.836;6.376;2023-02-17T11:07:36;101553.03;;;10.74;82.24
55456;BME280;63021;52.836;6.376;2023-02-17T11:10:23;101545.03;;;10.74;82.49
55456;BME280;63021;52.836;6.376;2023-02-17T11:12:50;101540.69;;;10.73;82.31
55456;BME280;63021;52.836;6.376;2023-02-17T11:15:21;101546.00;;;10.73;82.34
55456;BME280;63021;52.836;6.376;2023-02-17T11:17:48;101548.53;;;10.74;82.01
55456;BME280;63021;52.836;6.376;2023-02-17T11:22:44;101530.75;;;10.75;82.17
55456;BME280;63021;52.836;6.376;2023-02-17T11:25:25;101523.88;;;10.72;81.61
55456;BME280;63021;52.836;6.376;2023-02-17T11:27:53;101510.28;;;10.75;81.68
55456;BME280;63021;52.836;6.376;2023-02-17T11:30:19;101534.66;;;10.71;81.86
55456;BME280;63021;52.836;6.376;2023-02-17T11:32:45;101536.34;;;10.72;81.69
55456;BME280;63021;52.836;6.376;2023-02-17T11:35:26;101547.56;;;10.75;81.44
55456;BME280;63021;52.836;6.376;2023-02-17T11:38:00;101547.84;;;10.72;81.62
55456;BME280;63021;52.836;6.376;2023-02-17T11:40:30;101541.22;;;10.67;81.65
55456;BME280;63021;52.836;6.376;2023-02-17T11:43:01;101574.00;;;10.67;81.42
55456;BME280;63021;52.836;6.376;2023-02-17T11:45:33;101564.91;;;10.70;81.42
55456;BME280;63021;52.836;6.376;2023-02-17T11:54:04;101527.19;;;10.65;81.11
55456;BME280;63021;52.836;6.376;2023-02-17T11:56:43;101539.66;;;10.64;81.31
55456;BME280;63021;52.836;6.376;2023-02-17T12:12:59;101559.59;;;10.70;80.97
55456;BME280;63021;52.836;6.376;2023-02-17T12:19:18;101554.25;;;10.70;80.80
55456;BME280;63021;52.836;6.376;2023-02-17T12:22:17;101577.97;;;10.73;80.94
55456;BME280;63021;52.836;6.376;2023-02-17T12:24:55;101579.78;;;10.72;80.92
55456;BME280;63021;52.836;6.376;2023-02-17T12:30:19;101572.13;;;10.79;80.87
55456;BME280;63021;52.836;6.376;2023-02-17T12:38:26;101574.28;;;10.85;80.33
55456;BME280;63021;52.836;6.376;2023-02-17T12:41:19;101547.97;;;10.71;80.68
55456;BME280;63021;52.836;6.376;2023-02-17T12:46:26;101567.72;;;10.89;80.69
55456;BME280;63021;52.836;6.376;2023-02-17T12:49:00;101562.38;;;10.89;80.85
55456;BME280;63021;52.836;6.376;2023-02-17T12:51:35;101545.16;;;10.94;80.18
55456;BME280;63021;52.836;6.376;2023-02-17T12:54:33;101579.66;;;10.95;79.53
55456;BME280;63021;52.836;6.376;2023-02-17T12:57:18;101577.06;;;11.05;79.79
55456;BME280;63021;52.836;6.376;2023-02-17T12:59:50;101535.00;;;10.87;80.10
55456;BME280;63021;52.836;6.376;2023-02-17T13:02:22;101565.94;;;11.00;79.79
55456;BME280;63021;52.836;6.376;2023-02-17T13:04:57;101590.53;;;11.13;79.82
55456;BME280;63021;52.836;6.376;2023-02-17T13:13:26;101590.88;;;11.20;79.08
55456;BME280;63021;52.836;6.376;2023-02-17T13:18:37;101579.03;;;11.13;79.29
55456;BME280;63021;52.836;6.376;2023-02-17T13:26:35;101587.66;;;11.26;79.35
55456;BME280;63021;52.836;6.376;2023-02-17T13:29:17;101582.91;;;11.30;79.17
55456;BME280;63021;52.836;6.376;2023-02-17T13:31:55;101547.22;;;11.11;79.03
55456;BME280;63021;52.836;6.376;2023-02-17T13:34:39;101572.66;;;11.25;79.06
55456;BME280;63021;52.836;6.376;2023-02-17T13:37:38;101563.53;;;11.18;78.69
55456;BME280;63021;52.836;6.376;2023-02-17T13:43:07;101574.03;;;11.19;78.51
55456;BME280;63021;52.836;6.376;2023-02-17T13:45:41;101589.16;;;11.19;78.82
55456;BME280;63021;52.836;6.376;2023-02-17T13:51:30;101603.66;;;11.26;78.75
55456;BME280;63021;52.836;6.376;2023-02-17T13:54:08;101588.19;;;11.20;78.47
55456;BME280;63021;52.836;6.376;2023-02-17T13:56:34;101561.50;;;11.10;78.75
55456;BME280;63021;52.836;6.376;2023-02-17T13:59:15;101594.22;;;11.22;78.83
55456;BME280;63021;52.836;6.376;2023-02-17T14:01:51;101610.13;;;11.33;78.44
55456;BME280;63021;52.836;6.376;2023-02-17T14:04:29;101598.91;;;11.30;78.57
55456;BME280;63021;52.836;6.376;2023-02-17T14:06:59;101625.63;;;11.39;78.41
55456;BME280;63021;52.836;6.376;2023-02-17T14:09:30;101616.34;;;11.34;78.61
55456;BME280;63021;52.836;6.376;2023-02-17T14:11:58;101600.00;;;11.27;78.37
55456;BME280;63021;52.836;6.376;2023-02-17T14:14:31;101616.41;;;11.22;77.98
55456;BME280;63021;52.836;6.376;2023-02-17T14:17:04;101640.69;;;11.29;78.06
55456;BME280;63021;52.836;6.376;2023-02-17T14:19:47;101597.38;;;11.06;78.16
55456;BME280;63021;52.836;6.376;2023-02-17T14:25:00;101621.28;;;11.17;78.10
55456;BME280;63021;52.836;6.376;2023-02-17T14:27:30;101653.00;;;11.20;78.33
55456;BME280;63021;52.836;6.376;2023-02-17T14:30:05;101658.47;;;11.19;78.34
55456;BME280;63021;52.836;6.376;2023-02-17T14:32:35;101607.00;;;10.97;78.13
55456;BME280;63021;52.836;6.376;2023-02-17T14:37:38;101644.31;;;11.18;78.53
55456;BME280;63021;52.836;6.376;2023-02-17T14:40:16;101640.66;;;11.19;78.31
55456;BME280;63021;52.836;6.376;2023-02-17T14:42:45;101624.28;;;11.03;78.14
55456;BME280;63021;52.836;6.376;2023-02-17T14:45:12;101625.66;;;10.97;78.51
55456;BME280;63021;52.836;6.376;2023-02-17T14:47:42;101638.84;;;11.20;78.26
55456;BME280;63021;52.836;6.376;2023-02-17T14:50:08;101641.13;;;11.03;78.53